Time;durP1;ratioP1;P1;durP2;ratioP2;P2;SDS_P1;SDS_P2;PMS_P1;PMS_P2;Temp;Humidity;BMP_temperature;BMP_pressure;BME280_temperature;BME280_humidity;BME280_pressure;Samples;Min_cycle;Max_cycle;Signal;HPM_P1;HPM_P2
2023/06/27 00:01:52;;;;;;;1.35;1.17;;;23.30;48.20;;;;;;4954011;29;20528;-74
2023/06/27 00:04:19;;;;;;;1.92;1.30;;;23.30;48.30;;;;;;4954178;29;20043;-72
2023/06/27 00:06:46;;;;;;;1.17;0.98;;;23.30;48.40;;;;;;4954610;29;20490;-72
2023/06/27 00:09:11;;;;;;;1.60;1.10;;;23.30;48.50;;;;;;4953907;29;20495;-73
2023/06/27 00:11:39;;;;;;;2.13;1.20;;;23.20;48.50;;;;;;4953653;29;20031;-72
2023/06/27 00:14:05;;;;;;;1.80;1.10;;;23.20;48.50;;;;;;4954901;28;20114;-72
2023/06/27 00:16:35;;;;;;;1.10;1.00;;;23.10;48.50;;;;;;4954709;28;20066;-72
2023/06/27 00:19:04;;;;;;;1.23;1.02;;;23.10;48.70;;;;;;4937720;29;20441;-73
2023/06/27 00:21:34;;;;;;;1.63;1.10;;;23.10;48.70;;;;;;4937746;28;20043;-73
2023/06/27 00:24:01;;;;;;;1.00;0.90;;;23.10;48.70;;;;;;4954783;29;20114;-72
2023/06/27 00:26:27;;;;;;;1.30;1.10;;;23.00;48.70;;;;;;4953430;29;20031;-73
2023/06/27 00:28:54;;;;;;;1.27;1.02;;;23.00;48.80;;;;;;4953625;28;20465;-72
2023/06/27 00:31:20;;;;;;;1.85;1.10;;;23.00;48.90;;;;;;4953586;29;20130;-73
2023/06/27 00:33:46;;;;;;;2.40;1.10;;;22.90;48.90;;;;;;4954895;28;20027;-73
2023/06/27 00:36:14;;;;;;;1.38;1.10;;;22.90;49.00;;;;;;4953976;29;20112;-73
2023/06/27 00:38:39;;;;;;;1.67;1.23;;;22.90;49.10;;;;;;4953553;29;20047;-73
2023/06/27 00:41:05;;;;;;;1.10;0.93;;;22.80;49.00;;;;;;4953625;29;20063;-72
2023/06/27 00:43:33;;;;;;;1.80;1.35;;;22.80;49.10;;;;;;4937942;28;20058;-72
2023/06/27 00:46:05;;;;;;;1.75;1.10;;;22.80;49.20;;;;;;4937548;29;20092;-72
2023/06/27 00:48:31;;;;;;;1.52;1.10;;;22.70;49.30;;;;;;4953675;29;20112;-72
2023/06/27 00:50:58;;;;;;;2.20;1.10;;;22.70;49.30;;;;;;4954721;28;20476;-73
2023/06/27 00:53:25;;;;;;;1.92;1.20;;;22.70;49.30;;;;;;4953481;29;20031;-72
2023/06/27 00:55:51;;;;;;;1.77;1.20;;;22.60;49.30;;;;;;4954232;29;20074;-72
2023/06/27 00:58:18;;;;;;;1.73;1.20;;;22.60;49.40;;;;;;4953418;29;20042;-73
2023/06/27 01:00:44;;;;;;;1.35;1.10;;;22.60;49.50;;;;;;4955171;28;20511;-73
2023/06/27 01:03:10;;;;;;;1.30;1.10;;;22.60;49.50;;;;;;4937581;29;20032;-72
2023/06/27 01:05:36;;;;;;;1.17;0.98;;;22.50;49.50;;;;;;4953391;29;20158;-72
2023/06/27 01:08:08;;;;;;;1.98;1.10;;;22.50;49.60;;;;;;4938060;29;20039;-72
2023/06/27 01:11:00;;;;;;;1.35;1.00;;;22.50;49.70;;;;;;4956522;28;20035;-72
2023/06/27 01:13:36;;;;;;;2.10;1.10;;;22.40;49.70;;;;;;4957802;28;20448;-72
2023/06/27 01:16:03;;;;;;;2.20;1.17;;;22.40;49.70;;;;;;4957007;28;20535;-72
2023/06/27 01:18:32;;;;;;;1.10;1.10;;;22.40;49.80;;;;;;4941094;28;20046;-72
2023/06/27 01:20:59;;;;;;;1.30;1.20;;;22.40;49.80;;;;;;4956919;29;20182;-72
2023/06/27 01:23:44;;;;;;;1.35;1.10;;;22.40;49.80;;;;;;4958306;28;20031;-72
2023/06/27 01:26:12;;;;;;;2.22;1.20;;;22.40;50.00;;;;;;4956712;29;20053;-73
2023/06/27 01:28:37;;;;;;;1.90;1.17;;;22.30;50.00;;;;;;4956607;29;20103;-72
2023/06/27 01:31:06;;;;;;;1.30;1.10;;;22.30;50.00;;;;;;4958301;28;20122;-72
2023/06/27 01:33:39;;;;;;;1.25;1.15;;;22.30;50.00;;;;;;4957753;28;20051;-73
2023/06/27 01:36:14;;;;;;;1.50;1.13;;;22.30;50.10;;;;;;4957681;28;20566;-73
2023/06/27 01:39:08;;;;;;;1.27;1.02;;;22.30;50.10;;;;;;4956553;28;20377;-72
2023/06/27 01:41:37;;;;;;;2.33;1.25;;;22.30;50.20;;;;;;4956873;29;20066;-73
2023/06/27 01:44:06;;;;;;;1.90;1.20;;;22.30;50.20;;;;;;4956588;28;20057;-72
2023/06/27 01:46:33;;;;;;;2.03;1.30;;;22.20;50.20;;;;;;4956197;29;20070;-72
2023/06/27 01:48:59;;;;;;;1.77;1.10;;;22.20;50.20;;;;;;4956339;29;20122;-74
2023/06/27 01:51:25;;;;;;;1.63;1.10;;;22.20;50.30;;;;;;4956359;29;20086;-72
2023/06/27 01:53:51;;;;;;;1.63;1.15;;;22.20;50.30;;;;;;4956209;29;20453;-73
2023/06/27 01:56:17;;;;;;;1.23;1.13;;;22.20;50.40;;;;;;4957304;28;20027;-73
2023/06/27 01:58:46;;;;;;;2.30;1.25;;;22.10;50.40;;;;;;4955925;29;20045;-72
2023/06/27 02:01:11;;;;;;;1.02;1.02;;;22.20;50.50;;;;;;4956203;28;20027;-73
2023/06/27 02:03:37;;;;;;;1.38;1.08;;;22.10;50.50;;;;;;4957626;28;20373;-72
2023/06/27 02:06:03;;;;;;;2.33;1.10;;;22.10;51.20;;;;;;4957111;28;20460;-72
2023/06/27 02:08:29;;;;;;;2.05;1.40;;;22.10;50.60;;;;;;4957205;28;20042;-72
2023/06/27 02:10:54;;;;;;;1.27;1.17;;;22.10;50.60;;;;;;4955548;29;20034;-73
2023/06/27 02:13:20;;;;;;;1.40;1.13;;;22.10;50.60;;;;;;4957017;28;20042;-74
2023/06/27 02:15:46;;;;;;;1.08;1.00;;;22.10;50.70;;;;;;4956674;28;20473;-72
2023/06/27 02:18:11;;;;;;;1.85;1.38;;;22.00;50.70;;;;;;4955549;29;20031;-72
2023/06/27 02:20:38;;;;;;;2.78;1.30;;;22.00;50.70;;;;;;4955930;28;20107;-73
2023/06/27 02:23:03;;;;;;;3.70;1.50;;;22.00;50.70;;;;;;4939565;29;20123;-73
2023/06/27 02:25:29;;;;;;;1.75;1.20;;;22.00;50.80;;;;;;4955847;29;20368;-73
2023/06/27 02:27:55;;;;;;;1.88;1.27;;;21.90;50.80;;;;;;4955735;29;20027;-73
2023/06/27 02:30:20;;;;;;;1.30;1.20;;;21.90;50.80;;;;;;4955624;29;20031;-72
2023/06/27 02:32:46;;;;;;;1.48;1.23;;;21.90;50.90;;;;;;4955757;29;20399;-72
2023/06/27 02:35:15;;;;;;;2.13;1.30;;;21.90;50.90;;;;;;4956864;28;20452;-72
2023/06/27 02:37:41;;;;;;;1.83;1.27;;;21.90;50.90;;;;;;4955089;29;20164;-72
2023/06/27 02:40:08;;;;;;;1.50;1.27;;;21.90;51.00;;;;;;4939499;29;20038;-72
2023/06/27 02:42:34;;;;;;;1.35;1.13;;;21.80;51.00;;;;;;4955387;29;20130;-73
2023/06/27 02:45:00;;;;;;;1.98;1.50;;;21.80;51.00;;;;;;4955436;29;20067;-72
2023/06/27 02:47:25;;;;;;;2.45;1.50;;;21.80;51.00;;;;;;4956528;28;20122;-72
2023/06/27 02:49:51;;;;;;;2.15;1.45;;;21.80;51.10;;;;;;4939661;28;20042;-73
2023/06/27 02:52:17;;;;;;;1.38;1.20;;;21.80;51.10;;;;;;4956484;28;20468;-73
2023/06/27 02:54:43;;;;;;;1.40;1.30;;;21.80;51.20;;;;;;4939542;29;20126;-72
2023/06/27 02:57:10;;;;;;;2.45;1.30;;;21.80;51.20;;;;;;4955112;29;20133;-72
2023/06/27 02:59:38;;;;;;;1.58;1.23;;;21.80;51.20;;;;;;4940278;29;20039;-72
2023/06/27 03:02:04;;;;;;;2.03;1.30;;;21.70;51.20;;;;;;4955090;29;20093;-73
2023/06/27 03:04:30;;;;;;;1.58;1.20;;;21.70;51.30;;;;;;4956262;28;20122;-73
2023/06/27 03:06:56;;;;;;;2.33;1.30;;;21.70;51.30;;;;;;4938773;29;20126;-72
2023/06/27 03:09:22;;;;;;;2.30;1.35;;;21.70;51.40;;;;;;4939084;29;20043;-73
2023/06/27 03:11:48;;;;;;;1.77;1.20;;;21.60;51.40;;;;;;4938643;28;20098;-72
2023/06/27 03:14:18;;;;;;;1.75;1.20;;;21.70;51.50;;;;;;4954865;29;20037;-72
2023/06/27 03:16:47;;;;;;;1.63;1.20;;;21.60;51.50;;;;;;4954652;29;20039;-73
2023/06/27 03:19:13;;;;;;;3.08;1.55;;;21.60;51.50;;;;;;4955755;28;20127;-72
2023/06/27 03:21:38;;;;;;;1.88;1.30;;;21.60;51.60;;;;;;4938482;29;20031;-74
2023/06/27 03:24:05;;;;;;;2.00;1.45;;;21.60;51.60;;;;;;4954408;28;20027;-72
2023/06/27 03:26:32;;;;;;;1.80;1.52;;;21.60;51.60;;;;;;4954312;29;20071;-73
2023/06/27 03:29:00;;;;;;;1.98;1.27;;;21.50;51.70;;;;;;4922961;29;20050;-72
2023/06/27 03:31:26;;;;;;;2.58;1.35;;;21.50;51.70;;;;;;4938596;29;20035;-73
2023/06/27 03:33:54;;;;;;;1.92;1.48;;;21.50;51.70;;;;;;4953830;28;20034;-73
2023/06/27 03:36:20;;;;;;;1.33;1.15;;;21.50;51.80;;;;;;4954729;28;20055;-73
2023/06/27 03:38:48;;;;;;;1.95;1.40;;;21.50;51.80;;;;;;4938161;28;20055;-72
2023/06/27 03:41:15;;;;;;;1.83;1.33;;;21.40;51.80;;;;;;4938950;29;20038;-74
2023/06/27 03:43:41;;;;;;;2.97;1.50;;;21.40;51.90;;;;;;4938184;28;20419;-73
2023/06/27 03:46:12;;;;;;;3.20;1.60;;;21.40;51.90;;;;;;4938276;29;20035;-72
2023/06/27 03:48:38;;;;;;;1.65;1.35;;;21.40;52.00;;;;;;4955086;28;20039;-73
2023/06/27 03:51:04;;;;;;;2.88;1.73;;;21.30;51.90;;;;;;4953993;29;20031;-73
2023/06/27 03:53:30;;;;;;;2.13;1.35;;;21.30;52.00;;;;;;4954031;29;20027;-72
2023/06/27 03:55:56;;;;;;;2.13;1.40;;;21.30;52.00;;;;;;4938140;29;20122;-72
2023/06/27 03:58:22;;;;;;;2.13;1.15;;;21.30;52.10;;;;;;4954091;28;20098;-74
2023/06/27 04:00:52;;;;;;;2.13;1.40;;;21.30;52.20;;;;;;4953541;29;20050;-73
2023/06/27 04:03:18;;;;;;;2.60;1.40;;;21.30;52.30;;;;;;4953841;28;20468;-73
2023/06/27 04:05:44;;;;;;;1.83;1.25;;;21.30;52.30;;;;;;4955233;28;20085;-73
2023/06/27 04:08:11;;;;;;;2.78;1.52;;;21.30;52.30;;;;;;4954088;29;20034;-72
2023/06/27 04:10:37;;;;;;;2.22;1.42;;;21.20;52.40;;;;;;4953779;29;20036;-73
2023/06/27 04:13:03;;;;;;;2.45;1.45;;;21.20;52.40;;;;;;4953784;29;20476;-74
2023/06/27 04:15:29;;;;;;;1.38;1.25;;;21.20;53.10;;;;;;4938157;28;20050;-73
2023/06/27 04:17:55;;;;;;;3.10;1.60;;;21.20;52.50;;;;;;4954491;29;20592;-72
2023/06/27 04:20:21;;;;;;;1.92;1.40;;;21.10;52.40;;;;;;4937895;29;20035;-72
2023/06/27 04:22:46;;;;;;;2.53;1.40;;;21.20;52.50;;;;;;4954288;29;20035;-72
2023/06/27 04:25:13;;;;;;;2.35;1.50;;;21.20;52.60;;;;;;4954190;29;20043;-72
2023/06/27 04:27:38;;;;;;;2.30;1.40;;;21.10;52.50;;;;;;4938656;29;20055;-72
2023/06/27 04:30:05;;;;;;;2.83;1.63;;;21.10;52.60;;;;;;4954459;29;20039;-72
2023/06/27 04:32:33;;;;;;;3.17;1.55;;;21.10;52.60;;;;;;4953710;29;20028;-73
2023/06/27 04:34:59;;;;;;;2.72;1.63;;;21.10;52.70;;;;;;4954170;29;20110;-72
2023/06/27 04:37:24;;;;;;;2.72;1.35;;;21.10;52.70;;;;;;4953351;28;20087;-73
2023/06/27 04:39:52;;;;;;;2.67;1.60;;;21.10;52.80;;;;;;4954627;28;20087;-72
2023/06/27 04:42:18;;;;;;;3.45;1.70;;;21.10;52.80;;;;;;4938236;29;20050;-72
2023/06/27 04:44:44;;;;;;;2.47;1.30;;;21.10;52.80;;;;;;4956912;28;20520;-72
2023/06/27 04:47:10;;;;;;;1.98;1.33;;;21.10;52.90;;;;;;4958429;28;20110;-72
2023/06/27 04:49:36;;;;;;;2.10;1.60;;;21.10;52.90;;;;;;4958749;28;20066;-72
2023/06/27 04:52:02;;;;;;;2.38;1.63;;;21.10;52.90;;;;;;4957556;29;20392;-72
2023/06/27 04:54:28;;;;;;;2.60;1.60;;;21.10;53.00;;;;;;4941444;29;20043;-74
2023/06/27 04:56:53;;;;;;;2.00;1.50;;;21.10;53.00;;;;;;4941175;29;20031;-73
2023/06/27 04:59:19;;;;;;;2.38;1.67;;;21.10;53.00;;;;;;4957215;29;20047;-72
2023/06/27 05:01:45;;;;;;;1.90;1.23;;;21.10;53.00;;;;;;4941025;28;20039;-73
2023/06/27 05:04:11;;;;;;;2.97;1.40;;;21.10;53.10;;;;;;4959248;28;20093;-74
2023/06/27 05:06:37;;;;;;;2.00;1.48;;;21.10;53.10;;;;;;4958443;28;20431;-72
2023/06/27 05:09:03;;;;;;;2.17;1.45;;;21.10;53.10;;;;;;4941249;29;20039;-74
2023/06/27 05:11:30;;;;;;;4.00;1.60;;;21.10;53.10;;;;;;4957771;28;20455;-73
2023/06/27 05:13:56;;;;;;;2.35;1.35;;;21.10;53.20;;;;;;4958075;28;20183;-71
2023/06/27 05:16:22;;;;;;;2.20;1.33;;;21.10;53.20;;;;;;4957987;28;20027;-70
2023/06/27 05:18:48;;;;;;;2.00;1.40;;;21.10;53.20;;;;;;4958657;28;20034;-71
2023/06/27 05:21:14;;;;;;;3.47;1.75;;;21.10;53.20;;;;;;4957607;28;20410;-70
2023/06/27 05:23:40;;;;;;;3.28;1.60;;;21.10;53.30;;;;;;4956844;29;20043;-70
2023/06/27 05:26:06;;;;;;;1.92;1.40;;;21.10;53.30;;;;;;4957805;28;20399;-71
2023/06/27 05:28:33;;;;;;;3.15;1.90;;;21.10;53.30;;;;;;4957988;28;20035;-70
2023/06/27 05:30:59;;;;;;;3.30;1.65;;;21.10;53.40;;;;;;4956551;29;20043;-71
2023/06/27 05:33:25;;;;;;;2.63;1.70;;;21.10;53.40;;;;;;4956593;29;20038;-69
2023/06/27 05:35:50;;;;;;;2.33;1.55;;;21.10;53.40;;;;;;4958295;29;20652;-69
2023/06/27 05:38:16;;;;;;;3.30;1.70;;;21.10;53.40;;;;;;4957713;28;20071;-73
2023/06/27 05:40:43;;;;;;;2.60;1.50;;;21.10;53.40;;;;;;4941297;28;20369;-72
2023/06/27 05:43:08;;;;;;;2.72;1.75;;;21.10;53.40;;;;;;4956799;29;20572;-72
2023/06/27 05:45:34;;;;;;;2.08;1.55;;;21.10;53.50;;;;;;4940882;29;20106;-72
2023/06/27 05:48:00;;;;;;;2.35;1.15;;;21.10;53.50;;;;;;4957511;28;20034;-72
2023/06/27 05:50:27;;;;;;;3.25;1.70;;;21.10;53.50;;;;;;4957670;28;20356;-72
2023/06/27 05:52:52;;;;;;;1.73;1.38;;;21.10;53.60;;;;;;4956954;29;20028;-72
2023/06/27 05:55:18;;;;;;;2.83;1.58;;;21.10;54.20;;;;;;4956766;28;20184;-72
2023/06/27 05:57:44;;;;;;;2.72;1.67;;;21.10;53.60;;;;;;4940145;29;20086;-72
2023/06/27 06:00:10;;;;;;;2.80;1.73;;;21.10;53.70;;;;;;4957054;28;20039;-73
2023/06/27 06:02:41;;;;;;;2.92;1.80;;;21.10;53.70;;;;;;4957633;28;20134;-72
2023/06/27 06:05:07;;;;;;;2.20;1.50;;;21.10;53.70;;;;;;4940076;29;20465;-72
2023/06/27 06:07:32;;;;;;;1.98;1.60;;;21.10;53.80;;;;;;4957508;28;20458;-72
2023/06/27 06:09:58;;;;;;;2.42;1.58;;;21.10;53.80;;;;;;4956445;29;20055;-72
2023/06/27 06:12:24;;;;;;;3.92;1.55;;;21.10;53.80;;;;;;4955800;29;20028;-72
2023/06/27 06:14:50;;;;;;;2.90;1.70;;;21.10;53.80;;;;;;4939903;29;20089;-72
2023/06/27 06:17:16;;;;;;;2.75;1.80;;;21.10;53.80;;;;;;4956029;29;20042;-72
2023/06/27 06:19:41;;;;;;;2.58;1.63;;;21.20;53.90;;;;;;4956734;28;20043;-72
2023/06/27 06:22:07;;;;;;;3.88;1.92;;;21.20;53.90;;;;;;4939898;29;20039;-72
2023/06/27 06:24:33;;;;;;;2.20;1.55;;;21.10;53.90;;;;;;4955630;29;20467;-71
2023/06/27 06:26:59;;;;;;;2.38;1.52;;;21.10;53.90;;;;;;4939820;29;20110;-72
2023/06/27 06:29:24;;;;;;;3.25;1.70;;;21.20;53.90;;;;;;4939804;29;20035;-72
2023/06/27 06:31:50;;;;;;;3.33;1.55;;;21.20;53.90;;;;;;4939935;28;20035;-72
2023/06/27 06:34:16;;;;;;;2.95;1.60;;;21.20;54.00;;;;;;4955387;29;20043;-72
2023/06/27 06:36:41;;;;;;;2.20;1.50;;;21.20;54.00;;;;;;4955262;29;20078;-72
2023/06/27 06:39:07;;;;;;;2.90;1.55;;;21.20;54.00;;;;;;4955809;29;20035;-72
2023/06/27 06:41:33;;;;;;;3.05;1.73;;;21.20;54.30;;;;;;4955387;29;20391;-73
2023/06/27 06:43:59;;;;;;;2.92;1.50;;;21.20;54.00;;;;;;4956294;28;20034;-73
2023/06/27 06:46:25;;;;;;;3.65;1.55;;;21.20;54.00;;;;;;4955240;29;20039;-72
2023/06/27 06:48:51;;;;;;;2.55;1.73;;;21.20;54.20;;;;;;4956279;29;20486;-72
2023/06/27 06:51:17;;;;;;;2.85;1.60;;;21.20;54.00;;;;;;4956769;28;20160;-74
2023/06/27 06:53:42;;;;;;;1.92;1.45;;;21.20;54.00;;;;;;4954933;29;20033;-72
2023/06/27 06:56:08;;;;;;;3.17;1.40;;;21.20;54.00;;;;;;4954888;29;20118;-72
2023/06/27 06:58:34;;;;;;;2.13;1.50;;;21.20;54.00;;;;;;4954750;29;20484;-72
2023/06/27 07:01:00;;;;;;;1.77;1.40;;;21.20;54.00;;;;;;4954967;29;20101;-72
2023/06/27 07:03:25;;;;;;;2.03;1.38;;;21.30;54.00;;;;;;4955180;29;20039;-73
2023/06/27 07:05:51;;;;;;;2.88;1.50;;;21.30;54.10;;;;;;4955954;29;20483;-72
2023/06/27 07:08:17;;;;;;;1.45;1.27;;;21.30;54.00;;;;;;4953708;28;20070;-73
2023/06/27 07:10:42;;;;;;;1.73;1.33;;;21.30;54.00;;;;;;4954666;29;20038;-72
2023/06/27 07:13:08;;;;;;;2.03;1.40;;;21.30;54.10;;;;;;4954620;29;20032;-72
2023/06/27 07:15:34;;;;;;;3.15;1.63;;;21.30;54.10;;;;;;4955626;29;20059;-72
2023/06/27 07:17:59;;;;;;;1.45;1.27;;;21.30;54.10;;;;;;4955043;29;20114;-72
2023/06/27 07:20:25;;;;;;;3.22;1.65;;;21.30;54.00;;;;;;4954504;29;20512;-72
2023/06/27 07:22:52;;;;;;;2.58;1.40;;;21.40;54.10;;;;;;4956153;28;20536;-72
2023/06/27 07:25:18;;;;;;;4.20;1.23;;;21.40;54.10;;;;;;4955778;28;20030;-72
2023/06/27 07:27:45;;;;;;;2.42;1.75;;;21.40;54.00;;;;;;4955470;28;20027;-72
2023/06/27 07:30:11;;;;;;;1.85;1.33;;;21.50;54.00;;;;;;4954837;28;20034;-72
2023/06/27 07:32:37;;;;;;;3.00;1.38;;;21.50;54.00;;;;;;4956046;29;20035;-71
2023/06/27 07:35:06;;;;;;;2.05;1.30;;;21.50;53.80;;;;;;4922752;28;20579;-72
2023/06/27 07:37:32;;;;;;;2.80;1.35;;;21.60;53.80;;;;;;4955701;28;20043;-71
2023/06/27 07:39:58;;;;;;;1.80;1.27;;;21.60;53.70;;;;;;4954284;28;20126;-72
2023/06/27 07:42:25;;;;;;;1.98;1.20;;;21.70;53.70;;;;;;4955395;28;20118;-71
2023/06/27 07:44:51;;;;;;;2.85;1.30;;;21.70;53.60;;;;;;4954893;29;20110;-71
2023/06/27 07:47:17;;;;;;;2.38;1.40;;;21.80;53.60;;;;;;4954231;29;20547;-74
2023/06/27 07:49:42;;;;;;;1.98;1.33;;;21.80;53.50;;;;;;4955611;28;20395;-74
2023/06/27 07:52:11;;;;;;;3.55;1.50;;;21.90;53.50;;;;;;4954068;29;20031;-74
2023/06/27 07:54:37;;;;;;;1.50;1.10;;;21.90;53.40;;;;;;4955477;28;20028;-72
2023/06/27 07:57:04;;;;;;;2.25;1.50;;;22.00;53.30;;;;;;4954141;29;20059;-72
2023/06/27 07:59:29;;;;;;;1.50;1.00;;;22.10;53.30;;;;;;4955105;28;20042;-72
2023/06/27 08:01:55;;;;;;;1.80;1.23;;;22.10;53.20;;;;;;4938524;28;20367;-72
2023/06/27 08:04:22;;;;;;;2.25;1.20;;;22.20;53.10;;;;;;4938174;29;20035;-72
2023/06/27 08:06:48;;;;;;;1.35;1.05;;;22.30;53.10;;;;;;4954296;28;20178;-72
2023/06/27 08:09:13;;;;;;;1.05;0.98;;;22.30;53.00;;;;;;4954774;29;20508;-71
2023/06/27 08:11:39;;;;;;;1.10;1.00;;;22.40;53.00;;;;;;4953833;29;20098;-72
2023/06/27 08:14:05;;;;;;;1.60;1.10;;;22.50;53.00;;;;;;4938914;29;20360;-72
2023/06/27 08:16:32;;;;;;;3.08;1.38;;;22.50;52.90;;;;;;4955257;29;20463;-74
2023/06/27 08:18:59;;;;;;;2.40;1.13;;;22.50;52.80;;;;;;4954692;28;20062;-72
2023/06/27 08:21:25;;;;;;;1.40;1.10;;;22.60;52.80;;;;;;4942054;29;20039;-73
2023/06/27 08:23:50;;;;;;;1.08;0.98;;;22.70;52.80;;;;;;4941902;29;20038;-72
2023/06/27 08:26:17;;;;;;;1.75;1.00;;;22.70;52.70;;;;;;4959482;28;20527;-71
2023/06/27 08:28:44;;;;;;;1.60;1.02;;;22.80;52.70;;;;;;4958816;28;20066;-74
2023/06/27 08:31:11;;;;;;;2.30;1.10;;;22.90;52.70;;;;;;4958768;28;20487;-73
2023/06/27 08:33:37;;;;;;;1.33;1.02;;;22.90;52.60;;;;;;4958629;29;20066;-74
2023/06/27 08:36:02;;;;;;;1.25;1.00;;;23.00;52.50;;;;;;4959200;29;20075;-73
2023/06/27 08:38:28;;;;;;;1.77;1.17;;;23.00;52.50;;;;;;4958942;28;20447;-73
2023/06/27 08:40:55;;;;;;;1.80;0.85;;;23.10;52.50;;;;;;4958155;29;20035;-72
2023/06/27 08:43:21;;;;;;;2.08;1.20;;;23.20;52.50;;;;;;4959111;28;20352;-72
2023/06/27 08:45:54;;;;;;;1.58;0.98;;;23.20;52.40;;;;;;4958500;28;20118;-74
2023/06/27 08:48:20;;;;;;;1.23;1.00;;;23.30;52.40;;;;;;4957862;28;20130;-72
2023/06/27 08:50:48;;;;;;;2.03;1.05;;;23.30;52.30;;;;;;4957466;28;20510;-73
2023/06/27 08:53:14;;;;;;;1.08;0.93;;;23.40;52.30;;;;;;4941741;29;20171;-74
2023/06/27 08:56:07;;;;;;;2.28;1.00;;;23.50;52.30;;;;;;4958350;28;20035;-74
2023/06/27 08:58:45;;;;;;;1.73;1.08;;;23.50;52.30;;;;;;4958481;28;20038;-72
2023/06/27 09:01:12;;;;;;;1.48;1.00;;;23.60;52.20;;;;;;4958334;28;20114;-73
2023/06/27 09:03:37;;;;;;;1.13;1.00;;;23.60;52.10;;;;;;4958746;28;20032;-72
2023/06/27 09:06:05;;;;;;;1.15;0.90;;;23.70;52.10;;;;;;4957150;29;20086;-74
2023/06/27 09:08:34;;;;;;;1.30;1.00;;;23.70;52.10;;;;;;4958054;28;20028;-74
2023/06/27 09:11:01;;;;;;;2.30;1.08;;;23.80;52.10;;;;;;4958600;29;20042;-74
2023/06/27 09:13:27;;;;;;;1.63;1.00;;;23.80;52.00;;;;;;4941066;29;20035;-72
2023/06/27 09:15:53;;;;;;;1.50;1.17;;;23.90;52.00;;;;;;4957392;29;20039;-72
2023/06/27 09:18:19;;;;;;;1.90;0.90;;;24.00;52.10;;;;;;4958052;28;20031;-71
2023/06/27 09:20:46;;;;;;;1.27;0.98;;;24.00;52.00;;;;;;4941232;29;20039;-72
2023/06/27 09:23:12;;;;;;;1.05;0.77;;;24.00;51.90;;;;;;4957217;29;20039;-72
2023/06/27 09:25:37;;;;;;;2.00;1.10;;;24.10;52.00;;;;;;4958374;29;20050;-72
2023/06/27 09:28:17;;;;;;;1.40;0.88;;;24.20;52.00;;;;;;4957758;29;20122;-72
2023/06/27 09:30:56;;;;;;;0.98;0.80;;;24.20;52.00;;;;;;4955924;28;20365;-72
2023/06/27 09:33:23;;;;;;;1.25;0.80;;;24.20;51.90;;;;;;4941479;29;20031;-71
2023/06/27 09:35:50;;;;;;;1.05;0.90;;;24.30;51.90;;;;;;4956623;28;20381;-74
2023/06/27 09:38:18;;;;;;;0.85;0.80;;;24.30;51.80;;;;;;4957542;28;20036;-72
2023/06/27 09:40:44;;;;;;;1.35;0.90;;;24.40;51.80;;;;;;4956661;29;20468;-72
2023/06/27 09:43:12;;;;;;;1.08;0.85;;;24.40;51.70;;;;;;4957982;28;20118;-72
2023/06/27 09:45:37;;;;;;;1.17;0.90;;;24.40;52.30;;;;;;4956299;29;20061;-72
2023/06/27 09:48:07;;;;;;;1.00;0.80;;;24.50;51.70;;;;;;4940950;29;20453;-71
2023/06/27 09:50:33;;;;;;;0.98;0.88;;;24.50;51.60;;;;;;4956690;29;20086;-73
2023/06/27 09:53:00;;;;;;;1.02;0.93;;;24.50;51.60;;;;;;4956336;29;20036;-72
2023/06/27 09:55:26;;;;;;;1.70;1.00;;;24.60;51.60;;;;;;4957221;28;20031;-75
2023/06/27 09:57:52;;;;;;;1.48;0.82;;;24.70;51.50;;;;;;4956070;29;20492;-69
2023/06/27 10:00:22;;;;;;;1.05;0.70;;;24.70;51.50;;;;;;4957359;28;20031;-70
2023/06/27 10:02:49;;;;;;;1.95;0.95;;;24.80;51.40;;;;;;4957937;28;20038;-70
2023/06/27 10:05:15;;;;;;;1.52;0.90;;;24.80;51.30;;;;;;4957882;29;20081;-71
2023/06/27 10:07:43;;;;;;;0.93;0.80;;;24.80;51.20;;;;;;4940222;29;20028;-70
2023/06/27 10:10:09;;;;;;;1.63;1.10;;;24.90;51.20;;;;;;4956800;28;20400;-69
2023/06/27 10:12:36;;;;;;;1.33;0.73;;;24.90;51.00;;;;;;4957004;28;20063;-71
2023/06/27 10:15:03;;;;;;;1.60;0.90;;;25.00;51.00;;;;;;4957484;29;20424;-69
2023/06/27 10:17:29;;;;;;;0.70;0.70;;;25.10;51.00;;;;;;4957454;28;20103;-69
2023/06/27 10:19:56;;;;;;;0.95;0.82;;;25.10;51.00;;;;;;4956724;29;20235;-71
2023/06/27 10:22:26;;;;;;;0.85;0.80;;;25.10;50.80;;;;;;4940615;29;20036;-70
2023/06/27 10:24:56;;;;;;;1.38;0.90;;;25.20;50.80;;;;;;4957476;28;20117;-72
2023/06/27 10:27:25;;;;;;;0.70;0.70;;;25.20;50.80;;;;;;4956688;28;20032;-70
2023/06/27 10:29:51;;;;;;;1.88;0.88;;;25.30;50.70;;;;;;4939827;29;20448;-72
2023/06/27 10:32:18;;;;;;;0.75;0.70;;;25.30;50.60;;;;;;4923989;29;20032;-71
2023/06/27 10:34:45;;;;;;;1.35;0.80;;;25.40;50.60;;;;;;4955571;28;20050;-72
2023/06/27 10:37:24;;;;;;;1.30;0.70;;;25.40;50.60;;;;;;4955370;29;20107;-72
2023/06/27 10:40:07;;;;;;;0.82;0.75;;;25.50;50.60;;;;;;4956820;28;20122;-71
2023/06/27 10:42:32;;;;;;;1.33;0.80;;;25.60;50.50;;;;;;4955371;28;20051;-69
2023/06/27 10:45:05;;;;;;;1.55;0.70;;;25.70;50.50;;;;;;4956849;29;20376;-72
2023/06/27 10:47:41;;;;;;;1.20;0.75;;;25.70;50.50;;;;;;4955374;29;20404;-69
2023/06/27 10:50:15;;;;;;;1.10;0.70;;;25.70;50.40;;;;;;4939582;28;20440;-73
2023/06/27 10:52:59;;;;;;;1.42;0.80;;;25.70;50.20;;;;;;4956225;28;20042;-71
2023/06/27 10:55:29;;;;;;;1.17;0.68;;;25.80;50.30;;;;;;4955540;28;20058;-70
2023/06/27 10:58:10;;;;;;;0.88;0.60;;;25.90;50.30;;;;;;4955379;29;20050;-70
2023/06/27 11:00:44;;;;;;;1.58;0.60;;;25.90;50.30;;;;;;4955480;29;20133;-74
2023/06/27 11:03:10;;;;;;;;;;;25.90;50.20;;;;;;4939843;29;20039;-72
2023/06/27 11:05:47;;;;;;;0.65;0.50;;;25.90;50.10;;;;;;4956495;28;19978;-71
2023/06/27 11:08:18;;;;;;;0.93;0.80;;;26.10;50.20;;;;;;4957199;28;20038;-73
2023/06/27 11:11:08;;;;;;;0.80;0.63;;;26.00;50.20;;;;;;4955986;29;20032;-74
2023/06/27 11:13:45;;;;;;;1.48;0.90;;;26.10;50.30;;;;;;4956353;28;20063;-72
2023/06/27 11:16:14;;;;;;;1.00;0.73;;;26.10;50.20;;;;;;4955261;28;20078;-72
2023/06/27 11:18:39;;;;;;;0.77;0.77;;;26.10;50.20;;;;;;4955757;28;20043;-73
2023/06/27 11:21:05;;;;;;;1.08;0.80;;;26.10;50.20;;;;;;4939497;29;20047;-72
2023/06/27 11:23:31;;;;;;;1.02;0.70;;;26.20;50.10;;;;;;4956729;28;20019;-72
2023/06/27 11:25:57;;;;;;;1.08;0.80;;;26.20;50.10;;;;;;4955800;28;20042;-73
2023/06/27 11:28:24;;;;;;;1.50;0.80;;;26.20;50.00;;;;;;4955890;28;20035;-72
2023/06/27 11:30:57;;;;;;;1.17;0.60;;;26.30;50.00;;;;;;4938485;29;20047;-72
2023/06/27 11:33:23;;;;;;;1.88;0.80;;;26.30;50.10;;;;;;4938930;29;20357;-72
2023/06/27 11:35:49;;;;;;;1.55;0.80;;;26.30;50.00;;;;;;4956131;29;20119;-72
2023/06/27 11:38:15;;;;;;;0.65;0.65;;;26.30;50.00;;;;;;4955376;28;20035;-73
2023/06/27 11:40:51;;;;;;;1.05;0.77;;;26.40;50.00;;;;;;4938342;29;20126;-72
2023/06/27 11:43:18;;;;;;;1.17;0.80;;;26.40;50.00;;;;;;4954700;29;20039;-72
2023/06/27 11:46:00;;;;;;;2.22;1.00;;;26.40;49.90;;;;;;4955407;28;20031;-73
2023/06/27 11:48:27;;;;;;;1.55;1.00;;;26.50;49.90;;;;;;4955396;29;20031;-72
2023/06/27 11:51:06;;;;;;;1.40;0.85;;;26.50;49.90;;;;;;4955965;28;20044;-72
2023/06/27 11:53:33;;;;;;;0.77;0.60;;;26.50;49.90;;;;;;4938315;28;20027;-72
2023/06/27 11:55:59;;;;;;;1.20;0.80;;;26.60;49.90;;;;;;4955791;28;20074;-73
2023/06/27 11:58:32;;;;;;;0.80;0.70;;;26.60;49.80;;;;;;4955233;28;20035;-71
2023/06/27 12:00:59;;;;;;;1.60;0.75;;;26.60;49.80;;;;;;4938349;29;20043;-72
2023/06/27 12:03:29;;;;;;;1.58;0.70;;;26.60;49.70;;;;;;4938514;28;20027;-72
2023/06/27 12:05:57;;;;;;;0.65;0.65;;;26.70;49.70;;;;;;4954250;29;20419;-73
2023/06/27 12:08:28;;;;;;;1.25;0.68;;;26.70;49.70;;;;;;4938482;29;20460;-72
2023/06/27 12:10:58;;;;;;;0.63;0.57;;;26.70;49.70;;;;;;4955139;28;20035;-72
2023/06/27 12:13:33;;;;;;;1.23;0.70;;;26.70;49.70;;;;;;4955058;28;20038;-72
2023/06/27 12:15:59;;;;;;;0.68;0.68;;;26.80;49.70;;;;;;4938147;29;20110;-72
2023/06/27 12:18:27;;;;;;;1.33;0.70;;;26.80;49.70;;;;;;4938150;29;20138;-74
2023/06/27 12:20:54;;;;;;;0.63;0.63;;;26.80;49.60;;;;;;4953876;29;20039;-75
2023/06/27 12:23:20;;;;;;;1.23;0.90;;;26.80;49.60;;;;;;4953946;28;20035;-75
2023/06/27 12:25:47;;;;;;;1.02;0.77;;;26.80;49.60;;;;;;4954035;29;20031;-77
2023/06/27 12:28:13;;;;;;;1.05;0.77;;;26.80;49.50;;;;;;4954672;29;20400;-73
2023/06/27 12:30:39;;;;;;;1.02;0.68;;;26.80;49.50;;;;;;4954207;28;20058;-73
2023/06/27 12:33:08;;;;;;;1.10;0.63;;;26.90;49.60;;;;;;4953723;29;20126;-73
2023/06/27 12:35:34;;;;;;;1.65;0.60;;;26.90;49.50;;;;;;4953480;29;20110;-73
2023/06/27 12:38:00;;;;;;;0.63;0.60;;;26.90;49.50;;;;;;4938222;28;20113;-73
2023/06/27 12:40:26;;;;;;;2.15;0.88;;;26.90;49.50;;;;;;4954784;28;20484;-72
2023/06/27 12:42:53;;;;;;;0.85;0.60;;;26.90;49.40;;;;;;4937861;29;20085;-72
2023/06/27 12:45:20;;;;;;;0.85;0.50;;;26.90;49.40;;;;;;4938950;28;20450;-72
2023/06/27 12:47:46;;;;;;;1.58;0.80;;;26.90;49.40;;;;;;4954841;28;20031;-73
2023/06/27 12:50:17;;;;;;;0.70;0.50;;;26.90;49.40;;;;;;4954019;28;20031;-72